createdAt,value
2022-10-07T00:02:43.815Z,99726.31
2022-10-07T00:05:46.873Z,99725.69
2022-10-07T00:08:52.151Z,99727.50
2022-10-07T00:11:55.015Z,99721.69
2022-10-07T00:14:57.884Z,99720.75
2022-10-07T00:18:00.722Z,99719.78
2022-10-07T00:21:05.093Z,99725.00
2022-10-07T00:24:10.403Z,99723.88
2022-10-07T00:27:13.079Z,99710.94
2022-10-07T00:30:15.960Z,99713.22
2022-10-07T00:33:18.795Z,99709.00
2022-10-07T00:36:23.894Z,99703.03
2022-10-07T00:39:28.088Z,99699.47
2022-10-07T00:42:32.320Z,99688.97
2022-10-07T00:45:36.950Z,99683.47
2022-10-07T00:48:40.319Z,99685.94
2022-10-07T00:51:44.302Z,99680.09
2022-10-07T00:54:48.884Z,99679.91
2022-10-07T00:57:52.160Z,99668.13
2022-10-07T01:00:55.098Z,99662.63
2022-10-07T01:03:57.790Z,99666.69
2022-10-07T01:07:00.421Z,99660.41
2022-10-07T01:10:05.836Z,99659.56
2022-10-07T01:13:14.670Z,99668.78
2022-10-07T01:16:24.350Z,99658.28
2022-10-07T01:19:49.952Z,99662.66
2022-10-07T01:23:11.595Z,99656.03
2022-10-07T01:26:29.267Z,99654.09
2022-10-07T01:29:35.329Z,99654.91
2022-10-07T01:32:40.753Z,99651.16
2022-10-07T01:35:45.158Z,99649.25
2022-10-07T01:38:51.020Z,99647.66
2022-10-07T01:41:55.644Z,99638.75
2022-10-07T01:44:59.489Z,99630.50
2022-10-07T01:48:02.232Z,99632.78
2022-10-07T01:51:07.967Z,99626.75
2022-10-07T01:54:24.893Z,99620.16
2022-10-07T01:57:35.604Z,99625.66
2022-10-07T02:00:43.256Z,99611.41
2022-10-07T02:04:00.188Z,99613.69
2022-10-07T02:07:12.425Z,99617.72
2022-10-07T02:10:19.286Z,99606.44
2022-10-07T02:13:28.942Z,99606.72
2022-10-07T02:16:35.704Z,99606.72
2022-10-07T02:19:40.956Z,99597.19
2022-10-07T02:22:44.307Z,99598.81
2022-10-07T02:25:49.121Z,99596.53
2022-10-07T02:28:54.535Z,99594.13
2022-10-07T02:31:57.556Z,99587.34
2022-10-07T02:35:03.393Z,99584.59
2022-10-07T02:38:09.058Z,99588.97
2022-10-07T02:41:31.129Z,99580.06
2022-10-07T02:44:40.533Z,99582.66
2022-10-07T02:47:47.908Z,99577.50
2022-10-07T02:50:54.114Z,99575.69
2022-10-07T02:53:58.163Z,99579.59
2022-10-07T02:57:01.941Z,99574.72
2022-10-07T03:00:11.113Z,99568.75
2022-10-07T03:03:14.390Z,99569.56
2022-10-07T03:06:20.161Z,99566.34
2022-10-07T03:09:23.125Z,99561.13
2022-10-07T03:12:25.819Z,99560.84
2022-10-07T03:15:29.819Z,99555.63
2022-10-07T03:18:32.558Z,99553.22
2022-10-07T03:21:35.226Z,99557.59
2022-10-07T03:24:37.916Z,99551.13
2022-10-07T03:27:42.569Z,99546.75
2022-10-07T03:30:47.145Z,99554.19
2022-10-07T03:33:50.164Z,99544.66
2022-10-07T03:36:53.277Z,99535.41
2022-10-07T03:39:55.989Z,99532.66
2022-10-07T03:42:58.619Z,99532.34
2022-10-07T03:46:03.141Z,99541.69
2022-10-07T03:49:05.882Z,99526.53
2022-10-07T03:52:08.455Z,99527.34
2022-10-07T03:55:11.248Z,99524.59
2022-10-07T03:58:13.933Z,99535.41
2022-10-07T04:01:18.155Z,99530.25
2022-10-07T04:04:20.899Z,99518.44
2022-10-07T04:07:23.852Z,99518.28
2022-10-07T04:10:26.666Z,99511.50
2022-10-07T04:13:30.113Z,99515.03
2022-10-07T04:16:37.922Z,99508.44
2022-10-07T04:19:41.399Z,99506.00
2022-10-07T04:22:44.204Z,99501.63
2022-10-07T04:25:48.125Z,99507.47
2022-10-07T04:28:51.288Z,99504.25
2022-10-07T04:31:59.165Z,99499.84
2022-10-07T04:35:03.767Z,99493.72
2022-10-07T04:38:07.892Z,99492.28
2022-10-07T04:41:11.073Z,99488.25
2022-10-07T04:44:14.102Z,99492.94
2022-10-07T04:47:18.274Z,99483.06
2022-10-07T04:50:20.942Z,99478.22
2022-10-07T04:53:23.683Z,99478.38
2022-10-07T04:56:28.428Z,99484.66
2022-10-07T04:59:31.777Z,99475.63
2022-10-07T05:02:36.533Z,99477.41
2022-10-07T05:05:42.478Z,99473.22
2022-10-07T05:08:45.437Z,99477.53
2022-10-07T05:11:48.243Z,99472.06
2022-10-07T05:14:50.911Z,99472.53
2022-10-07T05:17:55.975Z,99479.47
2022-10-07T05:20:58.781Z,99475.59
2022-10-07T05:24:01.731Z,99471.09
2022-10-07T05:27:04.535Z,99478.53
2022-10-07T05:30:08.372Z,99471.13
2022-10-07T05:33:12.609Z,99464.97
2022-10-07T05:36:15.288Z,99469.16
2022-10-07T05:39:18.050Z,99468.22
2022-10-07T05:42:20.816Z,99467.06
2022-10-07T05:45:23.708Z,99467.94
2022-10-07T05:48:29.037Z,99465.50
2022-10-07T05:51:31.816Z,99472.09
2022-10-07T05:54:35.080Z,99474.66
2022-10-07T05:57:39.986Z,99471.72
2022-10-07T06:00:53.526Z,99462.00
2022-10-07T06:03:58.678Z,99460.84
2022-10-07T06:07:05.549Z,99465.34
2022-10-07T06:10:26.407Z,99459.94
2022-10-07T06:13:29.368Z,99458.41
2022-10-07T06:16:33.239Z,99459.66
2022-10-07T06:19:39.224Z,99460.72
2022-10-07T06:22:42.979Z,99457.78
2022-10-07T06:25:54.574Z,99462.56
2022-10-07T06:28:57.283Z,99453.78
2022-10-07T06:32:01.321Z,99454.69
2022-10-07T06:35:06.212Z,99452.00
2022-10-07T06:38:09.035Z,99459.34
2022-10-07T06:41:11.963Z,99457.97
2022-10-07T06:44:14.660Z,99462.22
2022-10-07T06:47:17.458Z,99456.25
2022-10-07T06:50:21.727Z,99452.16
2022-10-07T06:53:24.718Z,99454.03
2022-10-07T06:56:27.427Z,99457.25
2022-10-07T06:59:30.165Z,99454.63
2022-10-07T07:02:34.368Z,99453.56
2022-10-07T07:05:43.011Z,99456.44
2022-10-07T07:08:50.188Z,99448.72
2022-10-07T07:11:56.461Z,99452.06
2022-10-07T07:15:00.354Z,99458.06
2022-10-07T07:18:04.342Z,99460.25
2022-10-07T07:21:08.501Z,99452.19
2022-10-07T07:24:11.592Z,99455.88
2022-10-07T07:27:15.206Z,99446.44
2022-10-07T07:30:22.057Z,99452.19
2022-10-07T07:33:25.126Z,99446.44
2022-10-07T07:36:30.961Z,99442.59
2022-10-07T07:39:35.433Z,99442.09
2022-10-07T07:42:38.724Z,99453.03
2022-10-07T07:45:41.792Z,99444.38
2022-10-07T07:48:44.739Z,99449.41
2022-10-07T07:51:49.630Z,99436.44
2022-10-07T07:54:52.569Z,99437.06
2022-10-07T07:57:56.659Z,99433.19
2022-10-07T08:01:01.155Z,99440.75
2022-10-07T08:04:05.941Z,99443.72
2022-10-07T08:07:13.113Z,99435.13
2022-10-07T08:10:16.039Z,99430.81
2022-10-07T08:13:19.082Z,99427.88
2022-10-07T08:16:24.933Z,99425.50
2022-10-07T08:19:29.804Z,99428.53
2022-10-07T08:22:33.809Z,99414.44
2022-10-07T08:25:36.390Z,99420.13
2022-10-07T08:28:40.216Z,99420.06
2022-10-07T08:31:43.413Z,99421.00
2022-10-07T08:34:46.093Z,99423.50
2022-10-07T08:37:50.279Z,99414.34
2022-10-07T08:40:54.079Z,99409.38
2022-10-07T08:44:00.547Z,99419.31
2022-10-07T08:47:17.464Z,99415.13
2022-10-07T08:50:23.824Z,99408.47
2022-10-07T08:53:31.393Z,99402.22
2022-10-07T08:56:34.766Z,99398.78
2022-10-07T08:59:39.341Z,99394.69
2022-10-07T09:02:59.652Z,99392.19
2022-10-07T09:06:04.890Z,99397.13
2022-10-07T09:09:13.801Z,99392.50
2022-10-07T09:12:23.129Z,99399.88
2022-10-07T09:15:33.899Z,99388.34
2022-10-07T09:18:40.393Z,99388.41
2022-10-07T09:21:45.318Z,99386.41
2022-10-07T09:24:50.662Z,99377.56
2022-10-07T09:27:54.511Z,99382.69
2022-10-07T09:30:57.942Z,99370.00
2022-10-07T09:34:00.792Z,99370.94
2022-10-07T09:37:15.352Z,99369.25
2022-10-07T09:40:30.500Z,99368.66
2022-10-07T09:43:34.946Z,99358.00
2022-10-07T09:46:44.352Z,99354.75
2022-10-07T09:49:51.478Z,99365.41
2022-10-07T09:52:56.818Z,99361.84
2022-10-07T09:56:00.904Z,99359.72
2022-10-07T09:59:21.247Z,99359.25
2022-10-07T10:02:26.876Z,99350.50
2022-10-07T10:05:31.954Z,99350.09
2022-10-07T10:08:36.529Z,99346.81
2022-10-07T10:11:40.683Z,99342.91
2022-10-07T10:14:51.137Z,99344.81
2022-10-07T10:17:54.857Z,99338.91
2022-10-07T10:20:58.740Z,99338.38
2022-10-07T10:24:03.717Z,99328.22
2022-10-07T10:27:10.096Z,99332.53
2022-10-07T10:30:19.519Z,99323.75
2022-10-07T10:33:26.169Z,99321.47
2022-10-07T10:36:30.964Z,99313.50
2022-10-07T10:39:43.535Z,99309.91
2022-10-07T10:42:54.209Z,99311.50
2022-10-07T10:46:06.683Z,99294.28
2022-10-07T10:49:25.468Z,99304.94
2022-10-07T10:52:36.736Z,99302.00
2022-10-07T10:55:56.646Z,99291.72
2022-10-07T10:59:13.164Z,99294.00
2022-10-07T11:02:29.614Z,99280.94
2022-10-07T11:05:34.212Z,99278.13
2022-10-07T11:08:38.938Z,99271.41
2022-10-07T11:11:42.890Z,99275.81
2022-10-07T11:14:49.583Z,99272.13
2022-10-07T11:17:54.622Z,99273.66
2022-10-07T11:20:59.938Z,99265.78
2022-10-07T11:24:04.971Z,99256.25
2022-10-07T11:27:14.067Z,99242.34
2022-10-07T11:30:20.222Z,99245.50
2022-10-07T11:33:27.494Z,99242.28
2022-10-07T11:36:37.469Z,99236.72
2022-10-07T11:39:40.901Z,99224.00
2022-10-07T11:42:46.100Z,99227.16
2022-10-07T11:45:52.432Z,99223.41
2022-10-07T11:49:00.911Z,99225.69
2022-10-07T11:52:05.772Z,99223.59
2022-10-07T11:55:10.753Z,99210.44
2022-10-07T11:58:25.114Z,99203.44
2022-10-07T12:01:55.363Z,99205.38
2022-10-07T12:04:59.490Z,99194.22
2022-10-07T12:08:04.086Z,99187.53
2022-10-07T12:11:43.654Z,99182.97
2022-10-07T12:14:59.976Z,99180.69
2022-10-07T12:18:29.053Z,99172.00
2022-10-07T12:21:36.839Z,99168.56
2022-10-07T12:24:45.908Z,99164.19
2022-10-07T12:27:51.286Z,99162.00
2022-10-07T12:30:56.147Z,99164.00
2022-10-07T12:34:10.488Z,99160.19
2022-10-07T12:37:37.780Z,99161.69
2022-10-07T12:40:40.979Z,99157.22
2022-10-07T12:43:48.045Z,99156.50
2022-10-07T12:46:52.671Z,99149.19
2022-10-07T12:49:59.147Z,99147.72
2022-10-07T12:53:03.788Z,99154.41
2022-10-07T12:56:06.941Z,99145.53
2022-10-07T12:59:48.832Z,99142.72
2022-10-07T13:03:34.808Z,99137.38
2022-10-07T13:07:00.367Z,99138.41
2022-10-07T13:10:39.156Z,99129.34
2022-10-07T13:13:45.643Z,99125.31
2022-10-07T13:16:52.024Z,99126.31
2022-10-07T13:20:00.712Z,99113.19
2022-10-07T13:23:08.066Z,99103.47
2022-10-07T13:26:13.341Z,99094.09
2022-10-07T13:29:24.375Z,99086.06
2022-10-07T13:32:29.755Z,99088.50
2022-10-07T13:35:38.788Z,99083.25
2022-10-07T13:38:43.891Z,99084.97
2022-10-07T13:41:50.486Z,99086.84
2022-10-07T13:44:54.653Z,99072.38
2022-10-07T13:47:57.957Z,99072.25
2022-10-07T13:51:01.426Z,99065.81
2022-10-07T13:54:07.891Z,99063.28
2022-10-07T13:57:13.115Z,99067.03
2022-10-07T14:00:17.616Z,99061.38
2022-10-07T14:03:20.357Z,99062.59
2022-10-07T14:06:34.734Z,99047.81
2022-10-07T14:09:45.495Z,99052.63
2022-10-07T14:12:50.045Z,99039.16
2022-10-07T14:15:55.768Z,99043.06
2022-10-07T14:18:58.614Z,99042.66
2022-10-07T14:22:05.769Z,99036.00
2022-10-07T14:25:18.770Z,99027.56
2022-10-07T14:28:29.046Z,99026.44
2022-10-07T14:31:49.399Z,99010.28
2022-10-07T14:35:09.641Z,99004.34
2022-10-07T14:38:27.178Z,99015.66
2022-10-07T14:41:31.908Z,99010.19
2022-10-07T14:44:34.542Z,99014.16
2022-10-07T14:47:37.177Z,99000.13
2022-10-07T14:50:40.812Z,98997.97
2022-10-07T14:53:44.834Z,98987.78
2022-10-07T14:56:49.661Z,98985.16
2022-10-07T14:59:52.568Z,98987.22
2022-10-07T15:02:58.278Z,98983.47
2022-10-07T15:06:01.163Z,98977.78
2022-10-07T15:09:04.101Z,98980.88
2022-10-07T15:12:08.354Z,98977.41
2022-10-07T15:15:12.289Z,98970.78
2022-10-07T15:18:15.090Z,98964.00
2022-10-07T15:21:17.594Z,98964.75
2022-10-07T15:24:20.662Z,98957.94
2022-10-07T15:27:25.175Z,98957.81
2022-10-07T15:30:28.092Z,98956.34
2022-10-07T15:33:31.016Z,98944.84
2022-10-07T15:36:33.679Z,98947.56
2022-10-07T15:39:39.706Z,98946.13
2022-10-07T15:42:45.157Z,98939.56
2022-10-07T15:45:51.337Z,98948.22
2022-10-07T15:48:56.171Z,98947.00
2022-10-07T15:51:58.942Z,98946.38
2022-10-07T15:55:07.728Z,98940.09
2022-10-07T15:58:12.661Z,98940.19
2022-10-07T16:01:15.837Z,98942.72
2022-10-07T16:04:18.763Z,98946.28
2022-10-07T16:07:21.823Z,98935.97
2022-10-07T16:10:24.505Z,98937.88
2022-10-07T16:13:29.469Z,98927.44
2022-10-07T16:16:32.817Z,98923.16
2022-10-07T16:19:35.654Z,98923.31
2022-10-07T16:22:38.533Z,98928.34
2022-10-07T16:25:41.498Z,98922.22
2022-10-07T16:29:04.575Z,98922.06
2022-10-07T16:32:10.566Z,98922.84
2022-10-07T16:35:13.235Z,98925.97
2022-10-07T16:38:16.149Z,98924.53
2022-10-07T16:41:19.369Z,98924.72
2022-10-07T16:44:23.694Z,98922.22
2022-10-07T16:47:29.750Z,98921.97
2022-10-07T16:50:32.659Z,98924.28
2022-10-07T16:53:35.429Z,98921.75
2022-10-07T16:56:38.203Z,98925.38
2022-10-07T16:59:42.265Z,98925.88
2022-10-07T17:02:45.017Z,98923.94
2022-10-07T17:05:56.415Z,98916.19
2022-10-07T17:09:02.911Z,98921.53
2022-10-07T17:12:06.854Z,98911.94
2022-10-07T17:15:11.488Z,98918.16
2022-10-07T17:18:14.563Z,98927.31
2022-10-07T17:21:17.230Z,98928.56
2022-10-07T17:24:21.837Z,98924.91
2022-10-07T17:27:24.818Z,98926.41
2022-10-07T17:30:29.610Z,98921.00
2022-10-07T17:33:32.661Z,98917.50
2022-10-07T17:36:36.006Z,98919.84
2022-10-07T17:39:38.723Z,98915.03
2022-10-07T17:42:41.794Z,98920.19
2022-10-07T17:45:45.992Z,98914.78
2022-10-07T17:48:50.409Z,98919.22
2022-10-07T17:51:55.214Z,98926.88
2022-10-07T17:54:58.023Z,98923.50
2022-10-07T17:58:00.574Z,98923.75
2022-10-07T18:01:08.618Z,98927.59
2022-10-07T18:04:14.955Z,98914.31
2022-10-07T18:07:17.802Z,98915.81
2022-10-07T18:10:20.676Z,98922.31
2022-10-07T18:13:40.796Z,98914.63
2022-10-07T18:16:45.351Z,98917.56
2022-10-07T18:19:48.202Z,98919.06
2022-10-07T18:22:54.847Z,98921.22
2022-10-07T18:26:02.852Z,98920.25
2022-10-07T18:29:24.724Z,98915.09
2022-10-07T18:32:32.042Z,98915.78
2022-10-07T18:35:45.263Z,98911.16
2022-10-07T18:38:48.106Z,98911.88
2022-10-07T18:41:51.114Z,98909.47
2022-10-07T18:44:55.029Z,98902.19
2022-10-07T18:47:59.039Z,98900.03
2022-10-07T18:51:02.727Z,98897.88
2022-10-07T18:54:05.763Z,98892.38
2022-10-07T18:57:08.445Z,98899.50
2022-10-07T19:00:12.567Z,98897.00
2022-10-07T19:03:16.884Z,98896.19
2022-10-07T19:06:21.737Z,98901.13
2022-10-07T19:09:25.398Z,98905.91
2022-10-07T19:12:45.430Z,98904.56
2022-10-07T19:15:48.063Z,98900.00
2022-10-07T19:18:54.415Z,98893.94
2022-10-07T19:21:57.860Z,98903.00
2022-10-07T19:25:17.893Z,98908.06
2022-10-07T19:28:21.481Z,98894.97
2022-10-07T19:31:26.369Z,98894.31
2022-10-07T19:34:31.476Z,98895.09
2022-10-07T19:37:34.584Z,98896.78
2022-10-07T19:40:40.790Z,98904.00
2022-10-07T19:43:45.087Z,98901.91
2022-10-07T19:46:51.245Z,98903.72
2022-10-07T19:49:55.413Z,98904.25
2022-10-07T19:52:59.982Z,98897.59
2022-10-07T19:56:02.888Z,98896.78
2022-10-07T19:59:07.414Z,98907.00
2022-10-07T20:02:11.397Z,98905.84
2022-10-07T20:05:15.614Z,98894.84
2022-10-07T20:08:18.414Z,98898.03
2022-10-07T20:11:22.867Z,98898.38
2022-10-07T20:14:25.751Z,98895.28
2022-10-07T20:17:30.256Z,98898.31
2022-10-07T20:20:34.494Z,98890.72
2022-10-07T20:23:38.518Z,98888.47
2022-10-07T20:26:42.314Z,98890.59
2022-10-07T20:29:58.121Z,98892.44
2022-10-07T20:33:01.220Z,98897.09
2022-10-07T20:36:05.725Z,98886.78
2022-10-07T20:39:28.874Z,98895.31
2022-10-07T20:42:32.783Z,98888.69
2022-10-07T20:45:56.173Z,98889.69
2022-10-07T20:48:59.375Z,98884.13
2022-10-07T20:52:08.495Z,98875.91
2022-10-07T20:55:14.082Z,98873.19
2022-10-07T20:58:16.933Z,98877.34
2022-10-07T21:01:19.683Z,98880.59
2022-10-07T21:04:24.020Z,98880.50
2022-10-07T21:07:28.060Z,98880.84
2022-10-07T21:10:30.841Z,98877.63
2022-10-07T21:13:33.964Z,98868.22
2022-10-07T21:16:36.898Z,98871.22
2022-10-07T21:19:40.138Z,98866.56
2022-10-07T21:22:44.523Z,98861.88
2022-10-07T21:25:47.459Z,98859.72
2022-10-07T21:28:50.386Z,98853.59
2022-10-07T21:31:53.608Z,98860.25
2022-10-07T21:34:56.782Z,98858.53
2022-10-07T21:38:01.111Z,98858.41
2022-10-07T21:41:13.025Z,98850.88
2022-10-07T21:44:15.923Z,98847.19
2022-10-07T21:47:19.415Z,98852.13
2022-10-07T21:50:22.064Z,98849.28
2022-10-07T21:53:26.560Z,98847.19
2022-10-07T21:56:30.953Z,98856.69
2022-10-07T21:59:35.160Z,98847.19
2022-10-07T22:02:37.983Z,98859.56
2022-10-07T22:05:41.420Z,98844.09
2022-10-07T22:08:45.482Z,98849.94
2022-10-07T22:11:48.234Z,98854.53
2022-10-07T22:14:51.026Z,98857.75
2022-10-07T22:17:55.886Z,98851.75
2022-10-07T22:20:58.647Z,98851.44
2022-10-07T22:24:04.907Z,98849.72
2022-10-07T22:27:07.584Z,98845.19
2022-10-07T22:30:11.806Z,98842.47
2022-10-07T22:33:15.533Z,98839.78
2022-10-07T22:36:18.523Z,98833.97
2022-10-07T22:39:22.642Z,98837.81
2022-10-07T22:42:25.468Z,98839.41
2022-10-07T22:45:28.170Z,98836.59
2022-10-07T22:48:31.458Z,98829.13
2022-10-07T22:51:34.532Z,98832.69
2022-10-07T22:54:38.661Z,98826.00
2022-10-07T22:57:41.754Z,98825.56
2022-10-07T23:00:44.516Z,98825.03
2022-10-07T23:03:47.493Z,98828.75
2022-10-07T23:06:50.352Z,98826.72
2022-10-07T23:09:54.389Z,98827.06
2022-10-07T23:12:57.155Z,98830.63
2022-10-07T23:16:00.864Z,98828.22
2022-10-07T23:19:03.690Z,98838.88
2022-10-07T23:22:07.221Z,98840.84
2022-10-07T23:25:11.433Z,98833.72
2022-10-07T23:28:14.224Z,98836.13
2022-10-07T23:31:19.214Z,98831.59
2022-10-07T23:34:21.922Z,98837.19
2022-10-07T23:37:25.218Z,98831.81
2022-10-07T23:40:29.301Z,98825.94
2022-10-07T23:43:33.440Z,98823.84
2022-10-07T23:46:36.704Z,98822.94
2022-10-07T23:49:39.430Z,98820.81
2022-10-07T23:52:42.255Z,98810.41
2022-10-07T23:55:48.288Z,98827.72
2022-10-07T23:58:51.018Z,98822.91
